sensor_id;sensor_type;location;lat;lon;timestamp;P1;P2;P0
60816;PMS5003;51921;51.518;-3.188;2023-04-30T00:00:56;58;51;
60816;PMS5003;51921;51.518;-3.188;2023-04-30T00:03:21;49;45;
60816;PMS5003;51921;51.518;-3.188;2023-04-30T00:05:49;50;45;
60816;PMS5003;51921;51.518;-3.188;2023-04-30T00:08:12;59;53;
60816;PMS5003;51921;51.518;-3.188;2023-04-30T00:10:38;47;44;
60816;PMS5003;51921;51.518;-3.188;2023-04-30T00:13:03;51;49;
60816;PMS5003;51921;51.518;-3.188;2023-04-30T00:15:28;53;51;
60816;PMS5003;51921;51.518;-3.188;2023-04-30T00:17:53;52;47;
60816;PMS5003;51921;51.518;-3.188;2023-04-30T00:20:19;56;52;
60816;PMS5003;51921;51.518;-3.188;2023-04-30T00:22:44;49;46;
60816;PMS5003;51921;51.518;-3.188;2023-04-30T00:25:09;52;47;
60816;PMS5003;51921;51.518;-3.188;2023-04-30T00:27:35;51;47;
60816;PMS5003;51921;51.518;-3.188;2023-04-30T00:30:00;48;44;
60816;PMS5003;51921;51.518;-3.188;2023-04-30T00:32:25;55;51;
60816;PMS5003;51921;51.518;-3.188;2023-04-30T00:34:50;55;51;
60816;PMS5003;51921;51.518;-3.188;2023-04-30T00:37:16;48;47;
60816;PMS5003;51921;51.518;-3.188;2023-04-30T00:39:41;51;47;
60816;PMS5003;51921;51.518;-3.188;2023-04-30T00:42:06;53;49;
60816;PMS5003;51921;51.518;-3.188;2023-04-30T00:44:31;55;51;
60816;PMS5003;51921;51.518;-3.188;2023-04-30T00:46:56;47;46;
60816;PMS5003;51921;51.518;-3.188;2023-04-30T00:49:21;48;46;
60816;PMS5003;51921;51.518;-3.188;2023-04-30T00:51:47;56;49;
60816;PMS5003;51921;51.518;-3.188;2023-04-30T00:54:12;51;44;
60816;PMS5003;51921;51.518;-3.188;2023-04-30T00:56:37;56;53;
60816;PMS5003;51921;51.518;-3.188;2023-04-30T00:59:03;57;51;
60816;PMS5003;51921;51.518;-3.188;2023-04-30T01:01:28;49;47;
60816;PMS5003;51921;51.518;-3.188;2023-04-30T01:03:54;48;45;
60816;PMS5003;51921;51.518;-3.188;2023-04-30T01:06:20;54;47;
60816;PMS5003;51921;51.518;-3.188;2023-04-30T01:08:45;44;41;
60816;PMS5003;51921;51.518;-3.188;2023-04-30T01:11:14;53;52;
60816;PMS5003;51921;51.518;-3.188;2023-04-30T01:13:37;50;47;
60816;PMS5003;51921;51.518;-3.188;2023-04-30T01:16:03;49;43;
60816;PMS5003;51921;51.518;-3.188;2023-04-30T01:18:27;52;50;
60816;PMS5003;51921;51.518;-3.188;2023-04-30T01:20:53;48;44;
60816;PMS5003;51921;51.518;-3.188;2023-04-30T01:23:18;52;48;
60816;PMS5003;51921;51.518;-3.188;2023-04-30T01:25:44;45;39;
60816;PMS5003;51921;51.518;-3.188;2023-04-30T01:28:08;49;46;
60816;PMS5003;51921;51.518;-3.188;2023-04-30T01:30:34;44;41;
60816;PMS5003;51921;51.518;-3.188;2023-04-30T01:32:59;46;45;
60816;PMS5003;51921;51.518;-3.188;2023-04-30T01:35:28;45;38;
60816;PMS5003;51921;51.518;-3.188;2023-04-30T01:37:51;45;43;
60816;PMS5003;51921;51.518;-3.188;2023-04-30T01:40:19;46;42;
60816;PMS5003;51921;51.518;-3.188;2023-04-30T01:42:41;47;42;
60816;PMS5003;51921;51.518;-3.188;2023-04-30T01:45:10;41;41;
60816;PMS5003;51921;51.518;-3.188;2023-04-30T01:47:32;45;44;
60816;PMS5003;51921;51.518;-3.188;2023-04-30T01:50:04;41;39;
60816;PMS5003;51921;51.518;-3.188;2023-04-30T01:52:24;41;40;
60816;PMS5003;51921;51.518;-3.188;2023-04-30T01:54:50;42;39;
60816;PMS5003;51921;51.518;-3.188;2023-04-30T01:57:15;45;43;
60816;PMS5003;51921;51.518;-3.188;2023-04-30T01:59:38;46;39;
60816;PMS5003;51921;51.518;-3.188;2023-04-30T02:02:05;45;38;
60816;PMS5003;51921;51.518;-3.188;2023-04-30T02:04:29;39;38;
60816;PMS5003;51921;51.518;-3.188;2023-04-30T02:06:55;42;41;
60816;PMS5003;51921;51.518;-3.188;2023-04-30T02:09:20;45;43;
60816;PMS5003;51921;51.518;-3.188;2023-04-30T02:11:46;47;44;
60816;PMS5003;51921;51.518;-3.188;2023-04-30T02:14:11;49;47;
60816;PMS5003;51921;51.518;-3.188;2023-04-30T02:16:36;46;44;
60816;PMS5003;51921;51.518;-3.188;2023-04-30T02:19:02;41;38;
60816;PMS5003;51921;51.518;-3.188;2023-04-30T02:21:27;42;40;
60816;PMS5003;51921;51.518;-3.188;2023-04-30T02:23:53;47;43;
60816;PMS5003;51921;51.518;-3.188;2023-04-30T02:26:18;45;41;
60816;PMS5003;51921;51.518;-3.188;2023-04-30T02:28:44;47;45;
60816;PMS5003;51921;51.518;-3.188;2023-04-30T02:31:09;46;43;
60816;PMS5003;51921;51.518;-3.188;2023-04-30T02:33:35;45;44;
60816;PMS5003;51921;51.518;-3.188;2023-04-30T02:36:00;48;44;
60816;PMS5003;51921;51.518;-3.188;2023-04-30T02:38:25;47;43;
60816;PMS5003;51921;51.518;-3.188;2023-04-30T02:40:51;49;47;
60816;PMS5003;51921;51.518;-3.188;2023-04-30T02:43:16;56;47;
60816;PMS5003;51921;51.518;-3.188;2023-04-30T02:45:41;52;50;
60816;PMS5003;51921;51.518;-3.188;2023-04-30T02:48:07;51;45;
60816;PMS5003;51921;51.518;-3.188;2023-04-30T02:50:32;51;48;
60816;PMS5003;51921;51.518;-3.188;2023-04-30T02:52:57;47;45;
60816;PMS5003;51921;51.518;-3.188;2023-04-30T02:55:23;50;49;
60816;PMS5003;51921;51.518;-3.188;2023-04-30T02:57:48;48;45;
60816;PMS5003;51921;51.518;-3.188;2023-04-30T03:00:13;48;46;
60816;PMS5003;51921;51.518;-3.188;2023-04-30T03:02:39;49;44;
60816;PMS5003;51921;51.518;-3.188;2023-04-30T03:05:04;45;42;
60816;PMS5003;51921;51.518;-3.188;2023-04-30T03:07:30;47;43;
60816;PMS5003;51921;51.518;-3.188;2023-04-30T03:09:55;53;46;
60816;PMS5003;51921;51.518;-3.188;2023-04-30T03:12:21;49;45;
60816;PMS5003;51921;51.518;-3.188;2023-04-30T03:14:46;45;42;
60816;PMS5003;51921;51.518;-3.188;2023-04-30T03:17:12;52;50;
60816;PMS5003;51921;51.518;-3.188;2023-04-30T03:19:37;49;45;
60816;PMS5003;51921;51.518;-3.188;2023-04-30T03:22:03;58;51;
60816;PMS5003;51921;51.518;-3.188;2023-04-30T03:24:28;48;47;
60816;PMS5003;51921;51.518;-3.188;2023-04-30T03:26:54;51;50;
60816;PMS5003;51921;51.518;-3.188;2023-04-30T03:29:19;53;51;
60816;PMS5003;51921;51.518;-3.188;2023-04-30T03:31:44;54;49;
60816;PMS5003;51921;51.518;-3.188;2023-04-30T03:34:10;50;48;
60816;PMS5003;51921;51.518;-3.188;2023-04-30T03:36:35;48;43;
60816;PMS5003;51921;51.518;-3.188;2023-04-30T03:39:01;49;45;
60816;PMS5003;51921;51.518;-3.188;2023-04-30T03:41:26;50;47;
60816;PMS5003;51921;51.518;-3.188;2023-04-30T03:43:51;52;47;
60816;PMS5003;51921;51.518;-3.188;2023-04-30T03:46:17;50;44;
60816;PMS5003;51921;51.518;-3.188;2023-04-30T03:48:42;57;51;
60816;PMS5003;51921;51.518;-3.188;2023-04-30T03:51:08;50;46;
60816;PMS5003;51921;51.518;-3.188;2023-04-30T03:53:34;48;47;
60816;PMS5003;51921;51.518;-3.188;2023-04-30T03:56:00;53;49;
60816;PMS5003;51921;51.518;-3.188;2023-04-30T03:58:25;51;48;
60816;PMS5003;51921;51.518;-3.188;2023-04-30T04:00:51;46;45;
60816;PMS5003;51921;51.518;-3.188;2023-04-30T04:03:17;54;50;
60816;PMS5003;51921;51.518;-3.188;2023-04-30T04:05:42;45;44;
60816;PMS5003;51921;51.518;-3.188;2023-04-30T04:08:08;50;44;
60816;PMS5003;51921;51.518;-3.188;2023-04-30T04:10:33;45;43;
60816;PMS5003;51921;51.518;-3.188;2023-04-30T04:12:58;45;43;
60816;PMS5003;51921;51.518;-3.188;2023-04-30T04:15:24;45;44;
60816;PMS5003;51921;51.518;-3.188;2023-04-30T04:17:49;56;52;
60816;PMS5003;51921;51.518;-3.188;2023-04-30T04:20:14;53;50;
60816;PMS5003;51921;51.518;-3.188;2023-04-30T04:22:39;48;48;
60816;PMS5003;51921;51.518;-3.188;2023-04-30T04:25:05;50;45;
60816;PMS5003;51921;51.518;-3.188;2023-04-30T04:27:31;52;48;
60816;PMS5003;51921;51.518;-3.188;2023-04-30T04:29:56;49;47;
60816;PMS5003;51921;51.518;-3.188;2023-04-30T04:32:22;53;51;
60816;PMS5003;51921;51.518;-3.188;2023-04-30T04:34:46;47;44;
60816;PMS5003;51921;51.518;-3.188;2023-04-30T04:37:12;51;47;
60816;PMS5003;51921;51.518;-3.188;2023-04-30T04:39:38;58;52;
60816;PMS5003;51921;51.518;-3.188;2023-04-30T04:42:03;50;50;
60816;PMS5003;51921;51.518;-3.188;2023-04-30T04:44:29;56;50;
60816;PMS5003;51921;51.518;-3.188;2023-04-30T04:46:55;56;49;
60816;PMS5003;51921;51.518;-3.188;2023-04-30T04:49:20;53;50;
60816;PMS5003;51921;51.518;-3.188;2023-04-30T04:51:46;50;46;
60816;PMS5003;51921;51.518;-3.188;2023-04-30T04:54:11;58;53;
60816;PMS5003;51921;51.518;-3.188;2023-04-30T04:56:36;57;49;
60816;PMS5003;51921;51.518;-3.188;2023-04-30T04:59:02;54;50;
60816;PMS5003;51921;51.518;-3.188;2023-04-30T05:01:28;47;45;
60816;PMS5003;51921;51.518;-3.188;2023-04-30T05:03:53;56;52;
60816;PMS5003;51921;51.518;-3.188;2023-04-30T05:06:19;58;55;
60816;PMS5003;51921;51.518;-3.188;2023-04-30T05:08:44;61;55;
60816;PMS5003;51921;51.518;-3.188;2023-04-30T05:11:10;57;55;
60816;PMS5003;51921;51.518;-3.188;2023-04-30T05:13:36;63;56;
60816;PMS5003;51921;51.518;-3.188;2023-04-30T05:16:01;52;51;
60816;PMS5003;51921;51.518;-3.188;2023-04-30T05:18:26;61;56;
60816;PMS5003;51921;51.518;-3.188;2023-04-30T05:20:51;59;53;
60816;PMS5003;51921;51.518;-3.188;2023-04-30T05:23:17;57;52;
60816;PMS5003;51921;51.518;-3.188;2023-04-30T05:25:42;54;52;
60816;PMS5003;51921;51.518;-3.188;2023-04-30T05:28:08;56;53;
60816;PMS5003;51921;51.518;-3.188;2023-04-30T05:30:34;61;55;
60816;PMS5003;51921;51.518;-3.188;2023-04-30T05:32:59;50;48;
60816;PMS5003;51921;51.518;-3.188;2023-04-30T05:35:25;57;49;
60816;PMS5003;51921;51.518;-3.188;2023-04-30T05:37:50;58;52;
60816;PMS5003;51921;51.518;-3.188;2023-04-30T05:40:15;52;50;
60816;PMS5003;51921;51.518;-3.188;2023-04-30T05:42:40;59;52;
60816;PMS5003;51921;51.518;-3.188;2023-04-30T05:45:06;49;47;
60816;PMS5003;51921;51.518;-3.188;2023-04-30T05:47:31;52;48;
60816;PMS5003;51921;51.518;-3.188;2023-04-30T05:49:56;53;49;
60816;PMS5003;51921;51.518;-3.188;2023-04-30T05:52:22;51;49;
60816;PMS5003;51921;51.518;-3.188;2023-04-30T05:54:48;52;48;
60816;PMS5003;51921;51.518;-3.188;2023-04-30T05:57:13;54;50;
60816;PMS5003;51921;51.518;-3.188;2023-04-30T05:59:38;51;49;
60816;PMS5003;51921;51.518;-3.188;2023-04-30T06:02:04;53;47;
60816;PMS5003;51921;51.518;-3.188;2023-04-30T06:04:29;51;47;
60816;PMS5003;51921;51.518;-3.188;2023-04-30T06:06:55;44;39;
60816;PMS5003;51921;51.518;-3.188;2023-04-30T06:09:21;46;40;
60816;PMS5003;51921;51.518;-3.188;2023-04-30T06:11:46;40;38;
60816;PMS5003;51921;51.518;-3.188;2023-04-30T06:14:12;46;43;
60816;PMS5003;51921;51.518;-3.188;2023-04-30T06:16:37;48;45;
60816;PMS5003;51921;51.518;-3.188;2023-04-30T06:19:03;45;43;
60816;PMS5003;51921;51.518;-3.188;2023-04-30T06:21:28;40;40;
60816;PMS5003;51921;51.518;-3.188;2023-04-30T06:23:54;45;42;
60816;PMS5003;51921;51.518;-3.188;2023-04-30T06:26:20;43;41;
60816;PMS5003;51921;51.518;-3.188;2023-04-30T06:28:45;46;45;
60816;PMS5003;51921;51.518;-3.188;2023-04-30T06:31:10;52;51;
60816;PMS5003;51921;51.518;-3.188;2023-04-30T06:33:35;48;45;
60816;PMS5003;51921;51.518;-3.188;2023-04-30T06:36:00;50;46;
60816;PMS5003;51921;51.518;-3.188;2023-04-30T06:38:26;46;43;
60816;PMS5003;51921;51.518;-3.188;2023-04-30T06:40:51;50;47;
60816;PMS5003;51921;51.518;-3.188;2023-04-30T06:43:16;46;45;
60816;PMS5003;51921;51.518;-3.188;2023-04-30T06:45:42;51;45;
60816;PMS5003;51921;51.518;-3.188;2023-04-30T06:48:08;43;40;
60816;PMS5003;51921;51.518;-3.188;2023-04-30T06:50:33;46;45;
60816;PMS5003;51921;51.518;-3.188;2023-04-30T06:52:58;56;51;
60816;PMS5003;51921;51.518;-3.188;2023-04-30T06:55:24;52;46;
60816;PMS5003;51921;51.518;-3.188;2023-04-30T06:57:49;47;45;
60816;PMS5003;51921;51.518;-3.188;2023-04-30T07:00:14;54;50;
60816;PMS5003;51921;51.518;-3.188;2023-04-30T07:02:39;48;47;
60816;PMS5003;51921;51.518;-3.188;2023-04-30T07:05:05;50;48;
60816;PMS5003;51921;51.518;-3.188;2023-04-30T07:07:30;50;46;
60816;PMS5003;51921;51.518;-3.188;2023-04-30T07:09:56;53;45;
60816;PMS5003;51921;51.518;-3.188;2023-04-30T07:12:21;52;49;
60816;PMS5003;51921;51.518;-3.188;2023-04-30T07:14:46;55;51;
60816;PMS5003;51921;51.518;-3.188;2023-04-30T07:17:11;49;45;
60816;PMS5003;51921;51.518;-3.188;2023-04-30T07:19:37;48;46;
60816;PMS5003;51921;51.518;-3.188;2023-04-30T07:22:03;52;46;
60816;PMS5003;51921;51.518;-3.188;2023-04-30T07:24:28;57;50;
60816;PMS5003;51921;51.518;-3.188;2023-04-30T07:26:53;46;46;
60816;PMS5003;51921;51.518;-3.188;2023-04-30T07:29:19;54;51;
60816;PMS5003;51921;51.518;-3.188;2023-04-30T07:31:44;50;48;
60816;PMS5003;51921;51.518;-3.188;2023-04-30T07:34:10;58;52;
60816;PMS5003;51921;51.518;-3.188;2023-04-30T07:36:35;52;51;
60816;PMS5003;51921;51.518;-3.188;2023-04-30T07:39:01;63;55;
60816;PMS5003;51921;51.518;-3.188;2023-04-30T07:41:26;55;53;
60816;PMS5003;51921;51.518;-3.188;2023-04-30T07:43:52;57;50;
60816;PMS5003;51921;51.518;-3.188;2023-04-30T07:46:17;57;51;
60816;PMS5003;51921;51.518;-3.188;2023-04-30T07:48:43;63;55;
60816;PMS5003;51921;51.518;-3.188;2023-04-30T07:51:08;60;57;
60816;PMS5003;51921;51.518;-3.188;2023-04-30T07:53:33;55;52;
60816;PMS5003;51921;51.518;-3.188;2023-04-30T07:55:59;60;55;
60816;PMS5003;51921;51.518;-3.188;2023-04-30T07:58:25;52;49;
60816;PMS5003;51921;51.518;-3.188;2023-04-30T08:00:51;58;52;
60816;PMS5003;51921;51.518;-3.188;2023-04-30T08:03:16;52;52;
60816;PMS5003;51921;51.518;-3.188;2023-04-30T08:05:41;54;52;
60816;PMS5003;51921;51.518;-3.188;2023-04-30T08:08:07;53;51;
60816;PMS5003;51921;51.518;-3.188;2023-04-30T08:10:32;53;47;
60816;PMS5003;51921;51.518;-3.188;2023-04-30T08:12:58;54;52;
60816;PMS5003;51921;51.518;-3.188;2023-04-30T08:15:23;55;50;
60816;PMS5003;51921;51.518;-3.188;2023-04-30T08:17:49;52;50;
60816;PMS5003;51921;51.518;-3.188;2023-04-30T08:20:14;48;47;
60816;PMS5003;51921;51.518;-3.188;2023-04-30T08:22:40;48;46;
60816;PMS5003;51921;51.518;-3.188;2023-04-30T08:25:05;55;53;
60816;PMS5003;51921;51.518;-3.188;2023-04-30T08:27:31;52;49;
60816;PMS5003;51921;51.518;-3.188;2023-04-30T08:29:57;55;53;
60816;PMS5003;51921;51.518;-3.188;2023-04-30T08:32:22;55;52;
60816;PMS5003;51921;51.518;-3.188;2023-04-30T08:34:47;47;45;
60816;PMS5003;51921;51.518;-3.188;2023-04-30T08:37:13;59;57;
60816;PMS5003;51921;51.518;-3.188;2023-04-30T08:39:39;58;53;
60816;PMS5003;51921;51.518;-3.188;2023-04-30T08:42:07;49;49;
60816;PMS5003;51921;51.518;-3.188;2023-04-30T08:44:30;51;48;
60816;PMS5003;51921;51.518;-3.188;2023-04-30T08:46:55;58;54;
60816;PMS5003;51921;51.518;-3.188;2023-04-30T08:49:21;60;57;
60816;PMS5003;51921;51.518;-3.188;2023-04-30T08:51:46;57;54;
60816;PMS5003;51921;51.518;-3.188;2023-04-30T08:54:12;59;56;
60816;PMS5003;51921;51.518;-3.188;2023-04-30T08:56:37;56;55;
60816;PMS5003;51921;51.518;-3.188;2023-04-30T08:59:02;56;53;
60816;PMS5003;51921;51.518;-3.188;2023-04-30T09:01:28;57;54;
60816;PMS5003;51921;51.518;-3.188;2023-04-30T09:03:54;46;41;
60816;PMS5003;51921;51.518;-3.188;2023-04-30T09:06:19;59;51;
60816;PMS5003;51921;51.518;-3.188;2023-04-30T09:08:45;53;53;
60816;PMS5003;51921;51.518;-3.188;2023-04-30T09:11:20;53;47;
60816;PMS5003;51921;51.518;-3.188;2023-04-30T09:13:39;57;53;
60816;PMS5003;51921;51.518;-3.188;2023-04-30T09:16:02;55;52;
60816;PMS5003;51921;51.518;-3.188;2023-04-30T09:18:27;55;52;
60816;PMS5003;51921;51.518;-3.188;2023-04-30T09:20:53;54;50;
60816;PMS5003;51921;51.518;-3.188;2023-04-30T09:23:18;53;47;
60816;PMS5003;51921;51.518;-3.188;2023-04-30T09:25:44;59;56;
60816;PMS5003;51921;51.518;-3.188;2023-04-30T09:28:09;59;57;
60816;PMS5003;51921;51.518;-3.188;2023-04-30T09:30:35;65;59;
60816;PMS5003;51921;51.518;-3.188;2023-04-30T09:33:00;54;54;
60816;PMS5003;51921;51.518;-3.188;2023-04-30T09:35:28;58;56;
60816;PMS5003;51921;51.518;-3.188;2023-04-30T09:37:50;68;60;
60816;PMS5003;51921;51.518;-3.188;2023-04-30T09:40:16;56;54;
60816;PMS5003;51921;51.518;-3.188;2023-04-30T09:45:08;56;51;
60816;PMS5003;51921;51.518;-3.188;2023-04-30T09:47:32;53;48;
60816;PMS5003;51921;51.518;-3.188;2023-04-30T09:49:58;60;56;
60816;PMS5003;51921;51.518;-3.188;2023-04-30T09:52:23;51;50;
60816;PMS5003;51921;51.518;-3.188;2023-04-30T09:54:49;52;50;
60816;PMS5003;51921;51.518;-3.188;2023-04-30T09:57:14;60;57;
60816;PMS5003;51921;51.518;-3.188;2023-04-30T09:59:41;58;55;
60816;PMS5003;51921;51.518;-3.188;2023-04-30T10:02:05;56;53;
60816;PMS5003;51921;51.518;-3.188;2023-04-30T10:04:30;54;50;
60816;PMS5003;51921;51.518;-3.188;2023-04-30T10:06:55;55;53;
60816;PMS5003;51921;51.518;-3.188;2023-04-30T10:09:20;52;49;
60816;PMS5003;51921;51.518;-3.188;2023-04-30T10:11:45;52;50;
60816;PMS5003;51921;51.518;-3.188;2023-04-30T10:14:11;61;55;
60816;PMS5003;51921;51.518;-3.188;2023-04-30T10:16:38;51;49;
60816;PMS5003;51921;51.518;-3.188;2023-04-30T10:19:03;56;53;
60816;PMS5003;51921;51.518;-3.188;2023-04-30T10:21:27;58;56;
60816;PMS5003;51921;51.518;-3.188;2023-04-30T10:23:52;55;53;
60816;PMS5003;51921;51.518;-3.188;2023-04-30T10:26:18;55;51;
60816;PMS5003;51921;51.518;-3.188;2023-04-30T10:28:43;52;50;
60816;PMS5003;51921;51.518;-3.188;2023-04-30T10:31:08;49;45;
60816;PMS5003;51921;51.518;-3.188;2023-04-30T10:33:36;52;50;
60816;PMS5003;51921;51.518;-3.188;2023-04-30T10:35:59;48;43;
60816;PMS5003;51921;51.518;-3.188;2023-04-30T10:38:25;51;48;
60816;PMS5003;51921;51.518;-3.188;2023-04-30T10:40:50;47;46;
60816;PMS5003;51921;51.518;-3.188;2023-04-30T10:43:16;46;40;
60816;PMS5003;51921;51.518;-3.188;2023-04-30T10:45:41;48;46;
60816;PMS5003;51921;51.518;-3.188;2023-04-30T10:48:05;41;39;
60816;PMS5003;51921;51.518;-3.188;2023-04-30T10:50:31;45;42;
60816;PMS5003;51921;51.518;-3.188;2023-04-30T10:53:00;39;39;
60816;PMS5003;51921;51.518;-3.188;2023-04-30T10:55:22;48;43;
60816;PMS5003;51921;51.518;-3.188;2023-04-30T10:57:47;45;44;
60816;PMS5003;51921;51.518;-3.188;2023-04-30T11:00:18;48;45;
60816;PMS5003;51921;51.518;-3.188;2023-04-30T11:02:38;47;41;
60816;PMS5003;51921;51.518;-3.188;2023-04-30T11:05:09;44;43;
60816;PMS5003;51921;51.518;-3.188;2023-04-30T11:07:29;42;38;
60816;PMS5003;51921;51.518;-3.188;2023-04-30T11:09:55;43;38;
60816;PMS5003;51921;51.518;-3.188;2023-04-30T11:12:20;34;32;
60816;PMS5003;51921;51.518;-3.188;2023-04-30T11:14:45;41;39;
60816;PMS5003;51921;51.518;-3.188;2023-04-30T11:17:12;39;37;
60816;PMS5003;51921;51.518;-3.188;2023-04-30T11:29:17;39;38;
60816;PMS5003;51921;51.518;-3.188;2023-04-30T11:31:42;43;42;
60816;PMS5003;51921;51.518;-3.188;2023-04-30T11:34:08;41;40;
60816;PMS5003;51921;51.518;-3.188;2023-04-30T11:36:34;47;46;
60816;PMS5003;51921;51.518;-3.188;2023-04-30T11:39:00;43;42;
60816;PMS5003;51921;51.518;-3.188;2023-04-30T11:41:25;49;48;
60816;PMS5003;51921;51.518;-3.188;2023-04-30T11:43:50;53;48;
60816;PMS5003;51921;51.518;-3.188;2023-04-30T11:46:15;49;46;
60816;PMS5003;51921;51.518;-3.188;2023-04-30T11:48:43;46;45;
60816;PMS5003;51921;51.518;-3.188;2023-04-30T11:51:13;57;53;
60816;PMS5003;51921;51.518;-3.188;2023-04-30T11:53:32;49;46;
60816;PMS5003;51921;51.518;-3.188;2023-04-30T11:56:01;53;49;
60816;PMS5003;51921;51.518;-3.188;2023-04-30T11:58:23;51;50;
60816;PMS5003;51921;51.518;-3.188;2023-04-30T12:00:49;52;48;
60816;PMS5003;51921;51.518;-3.188;2023-04-30T12:03:14;48;45;
60816;PMS5003;51921;51.518;-3.188;2023-04-30T12:05:39;48;42;
60816;PMS5003;51921;51.518;-3.188;2023-04-30T12:08:06;45;44;
60816;PMS5003;51921;51.518;-3.188;2023-04-30T12:10:30;52;48;
60816;PMS5003;51921;51.518;-3.188;2023-04-30T12:12:56;55;52;
60816;PMS5003;51921;51.518;-3.188;2023-04-30T12:15:23;47;45;
60816;PMS5003;51921;51.518;-3.188;2023-04-30T12:17:47;52;50;
60816;PMS5003;51921;51.518;-3.188;2023-04-30T12:20:13;47;44;
60816;PMS5003;51921;51.518;-3.188;2023-04-30T12:22:38;56;53;
60816;PMS5003;51921;51.518;-3.188;2023-04-30T12:25:05;53;49;
60816;PMS5003;51921;51.518;-3.188;2023-04-30T12:27:29;57;51;
60816;PMS5003;51921;51.518;-3.188;2023-04-30T12:29:54;47;45;
60816;PMS5003;51921;51.518;-3.188;2023-04-30T12:32:20;55;46;
60816;PMS5003;51921;51.518;-3.188;2023-04-30T12:34:44;53;48;
60816;PMS5003;51921;51.518;-3.188;2023-04-30T12:37:10;52;50;
60816;PMS5003;51921;51.518;-3.188;2023-04-30T12:39:35;50;49;
60816;PMS5003;51921;51.518;-3.188;2023-04-30T12:42:01;59;54;
60816;PMS5003;51921;51.518;-3.188;2023-04-30T12:44:26;57;54;
60816;PMS5003;51921;51.518;-3.188;2023-04-30T12:46:52;49;46;
60816;PMS5003;51921;51.518;-3.188;2023-04-30T12:49:22;49;46;
60816;PMS5003;51921;51.518;-3.188;2023-04-30T12:51:42;53;50;
60816;PMS5003;51921;51.518;-3.188;2023-04-30T12:54:08;54;50;
60816;PMS5003;51921;51.518;-3.188;2023-04-30T12:56:34;49;47;
60816;PMS5003;51921;51.518;-3.188;2023-04-30T12:59:00;52;50;
60816;PMS5003;51921;51.518;-3.188;2023-04-30T13:01:25;53;48;
60816;PMS5003;51921;51.518;-3.188;2023-04-30T13:03:51;40;39;
60816;PMS5003;51921;51.518;-3.188;2023-04-30T13:06:16;49;47;
60816;PMS5003;51921;51.518;-3.188;2023-04-30T13:08:42;43;42;
60816;PMS5003;51921;51.518;-3.188;2023-04-30T13:11:07;53;48;
60816;PMS5003;51921;51.518;-3.188;2023-04-30T13:13:33;50;45;
60816;PMS5003;51921;51.518;-3.188;2023-04-30T13:15:58;52;49;
60816;PMS5003;51921;51.518;-3.188;2023-04-30T13:18:23;56;48;
60816;PMS5003;51921;51.518;-3.188;2023-04-30T13:20:48;54;48;
60816;PMS5003;51921;51.518;-3.188;2023-04-30T13:23:13;57;51;
60816;PMS5003;51921;51.518;-3.188;2023-04-30T13:25:39;52;50;
60816;PMS5003;51921;51.518;-3.188;2023-04-30T13:28:05;47;43;
60816;PMS5003;51921;51.518;-3.188;2023-04-30T13:30:30;52;49;
60816;PMS5003;51921;51.518;-3.188;2023-04-30T13:32:56;52;48;
60816;PMS5003;51921;51.518;-3.188;2023-04-30T13:35:21;47;44;
60816;PMS5003;51921;51.518;-3.188;2023-04-30T13:37:46;52;47;
60816;PMS5003;51921;51.518;-3.188;2023-04-30T13:40:12;42;41;
60816;PMS5003;51921;51.518;-3.188;2023-04-30T13:42:37;50;49;
60816;PMS5003;51921;51.518;-3.188;2023-04-30T13:45:04;47;44;
60816;PMS5003;51921;51.518;-3.188;2023-04-30T13:47:28;49;44;
60816;PMS5003;51921;51.518;-3.188;2023-04-30T13:49:54;50;47;
60816;PMS5003;51921;51.518;-3.188;2023-04-30T13:52:19;49;47;
60816;PMS5003;51921;51.518;-3.188;2023-04-30T13:54:45;44;41;
60816;PMS5003;51921;51.518;-3.188;2023-04-30T13:57:11;41;37;
60816;PMS5003;51921;51.518;-3.188;2023-04-30T13:59:36;43;41;
60816;PMS5003;51921;51.518;-3.188;2023-04-30T14:02:01;44;42;
60816;PMS5003;51921;51.518;-3.188;2023-04-30T14:04:27;45;42;
60816;PMS5003;51921;51.518;-3.188;2023-04-30T14:06:53;43;41;
60816;PMS5003;51921;51.518;-3.188;2023-04-30T14:09:18;42;40;
60816;PMS5003;51921;51.518;-3.188;2023-04-30T14:11:43;33;30;
60816;PMS5003;51921;51.518;-3.188;2023-04-30T14:14:08;42;40;
60816;PMS5003;51921;51.518;-3.188;2023-04-30T14:16:33;38;35;
60816;PMS5003;51921;51.518;-3.188;2023-04-30T14:18:59;41;40;
60816;PMS5003;51921;51.518;-3.188;2023-04-30T14:21:24;41;38;
60816;PMS5003;51921;51.518;-3.188;2023-04-30T14:23:49;35;33;
60816;PMS5003;51921;51.518;-3.188;2023-04-30T14:26:14;39;36;
60816;PMS5003;51921;51.518;-3.188;2023-04-30T14:28:40;34;33;
60816;PMS5003;51921;51.518;-3.188;2023-04-30T14:31:05;46;43;
60816;PMS5003;51921;51.518;-3.188;2023-04-30T14:33:31;35;34;
60816;PMS5003;51921;51.518;-3.188;2023-04-30T14:35:57;38;35;
60816;PMS5003;51921;51.518;-3.188;2023-04-30T14:38:22;35;34;
60816;PMS5003;51921;51.518;-3.188;2023-04-30T14:40:47;35;33;
60816;PMS5003;51921;51.518;-3.188;2023-04-30T14:43:13;38;36;
60816;PMS5003;51921;51.518;-3.188;2023-04-30T14:45:38;43;40;
60816;PMS5003;51921;51.518;-3.188;2023-04-30T14:48:09;41;39;
60816;PMS5003;51921;51.518;-3.188;2023-04-30T14:50:29;39;38;
60816;PMS5003;51921;51.518;-3.188;2023-04-30T14:52:54;42;40;
60816;PMS5003;51921;51.518;-3.188;2023-04-30T14:55:20;43;38;
60816;PMS5003;51921;51.518;-3.188;2023-04-30T14:57:45;37;37;
60816;PMS5003;51921;51.518;-3.188;2023-04-30T15:00:12;38;34;
60816;PMS5003;51921;51.518;-3.188;2023-04-30T15:02:37;36;35;
60816;PMS5003;51921;51.518;-3.188;2023-04-30T15:05:03;45;43;
60816;PMS5003;51921;51.518;-3.188;2023-04-30T15:07:28;42;41;
60816;PMS5003;51921;51.518;-3.188;2023-04-30T15:09:53;40;40;
60816;PMS5003;51921;51.518;-3.188;2023-04-30T15:12:19;44;39;
60816;PMS5003;51921;51.518;-3.188;2023-04-30T15:14:44;45;40;
60816;PMS5003;51921;51.518;-3.188;2023-04-30T15:17:10;39;37;
60816;PMS5003;51921;51.518;-3.188;2023-04-30T15:19:35;36;35;
60816;PMS5003;51921;51.518;-3.188;2023-04-30T15:22:01;40;37;
60816;PMS5003;51921;51.518;-3.188;2023-04-30T15:24:27;41;39;
60816;PMS5003;51921;51.518;-3.188;2023-04-30T15:26:54;42;39;
60816;PMS5003;51921;51.518;-3.188;2023-04-30T15:29:18;42;39;
60816;PMS5003;51921;51.518;-3.188;2023-04-30T15:31:44;44;42;
60816;PMS5003;51921;51.518;-3.188;2023-04-30T15:40:26;29;29;
60816;PMS5003;51921;51.518;-3.188;2023-04-30T15:42:47;41;39;
60816;PMS5003;51921;51.518;-3.188;2023-04-30T15:45:12;42;41;
60816;PMS5003;51921;51.518;-3.188;2023-04-30T15:47:38;47;43;
60816;PMS5003;51921;51.518;-3.188;2023-04-30T15:50:03;38;37;
60816;PMS5003;51921;51.518;-3.188;2023-04-30T15:52:29;40;35;
60816;PMS5003;51921;51.518;-3.188;2023-04-30T15:54:54;41;39;
60816;PMS5003;51921;51.518;-3.188;2023-04-30T15:57:20;40;39;
60816;PMS5003;51921;51.518;-3.188;2023-04-30T15:59:45;42;40;
60816;PMS5003;51921;51.518;-3.188;2023-04-30T16:02:11;43;42;
60816;PMS5003;51921;51.518;-3.188;2023-04-30T16:04:36;48;47;
60816;PMS5003;51921;51.518;-3.188;2023-04-30T16:07:01;39;35;